createdAt,value
2018-05-18T00:01:48.208Z,101450.98
2018-05-18T00:04:51.642Z,101455.27
2018-05-18T00:07:56.598Z,101453.09
2018-05-18T00:10:59.958Z,101447.33
2018-05-18T00:14:03.296Z,101448.06
2018-05-18T00:17:07.408Z,101444.44
2018-05-18T00:20:10.729Z,101445.60
2018-05-18T00:23:15.203Z,101450.77
2018-05-18T00:26:18.527Z,101447.52
2018-05-18T00:29:21.922Z,101446.20
2018-05-18T00:32:25.295Z,101451.94
2018-05-18T00:35:28.767Z,101454.75
2018-05-18T00:38:32.083Z,101456.06
2018-05-18T00:41:35.495Z,101459.40
2018-05-18T00:44:38.841Z,101463.23
2018-05-18T00:47:42.167Z,101462.20
2018-05-18T00:50:45.492Z,101463.36
2018-05-18T00:53:48.838Z,101461.24
2018-05-18T00:56:52.155Z,101458.64
2018-05-18T00:59:55.485Z,101462.49
2018-05-18T01:02:58.782Z,101471.11
2018-05-18T01:06:02.901Z,101474.09
2018-05-18T01:09:07.018Z,101477.06
2018-05-18T01:12:11.109Z,101472.78
2018-05-18T01:15:14.513Z,101476.17
2018-05-18T01:18:17.935Z,101464.89
2018-05-18T01:21:22.805Z,101471.29
2018-05-18T01:24:26.270Z,101468.98
2018-05-18T01:27:29.617Z,101468.04
2018-05-18T01:30:32.970Z,101467.83
2018-05-18T01:33:38.029Z,101466.54
2018-05-18T01:36:41.350Z,101470.87
2018-05-18T01:39:44.756Z,101464.22
2018-05-18T01:42:48.348Z,101467.25
2018-05-18T01:45:51.980Z,101467.50
2018-05-18T01:48:56.182Z,101465.57
2018-05-18T01:51:59.591Z,101475.09
2018-05-18T01:55:02.921Z,101477.27
2018-05-18T01:58:06.256Z,101476.84
2018-05-18T02:01:09.660Z,101478.98
2018-05-18T02:04:13.021Z,101473.58
2018-05-18T02:07:16.332Z,101483.84
2018-05-18T02:10:19.650Z,101484.12
2018-05-18T02:13:23.074Z,101488.25
2018-05-18T02:16:26.446Z,101493.86
2018-05-18T02:19:29.809Z,101492.78
2018-05-18T02:22:33.147Z,101491.27
2018-05-18T02:25:36.548Z,101490.02
2018-05-18T02:28:39.889Z,101494.20
2018-05-18T02:31:43.246Z,101495.38
2018-05-18T02:34:47.464Z,101496.58
2018-05-18T02:37:50.863Z,101492.59
2018-05-18T02:40:54.242Z,101498.00
2018-05-18T02:43:57.642Z,101496.90
2018-05-18T02:47:01.050Z,101487.67
2018-05-18T02:50:04.461Z,101499.33
2018-05-18T02:53:07.863Z,101491.13
2018-05-18T02:56:11.977Z,101494.87
2018-05-18T02:59:16.075Z,101492.20
2018-05-18T03:02:20.189Z,101493.49
2018-05-18T03:05:23.579Z,101496.10
2018-05-18T03:08:26.912Z,101495.48
2018-05-18T03:11:31.094Z,101498.63
2018-05-18T03:14:34.439Z,101499.32
2018-05-18T03:17:37.765Z,101497.44
2018-05-18T03:20:46.706Z,101495.60
2018-05-18T03:23:50.100Z,101504.07
2018-05-18T03:26:53.502Z,101500.53
2018-05-18T03:29:56.920Z,101500.38
2018-05-18T03:33:02.680Z,101505.48
2018-05-18T03:36:06.769Z,101508.94
2018-05-18T03:39:10.099Z,101514.39
2018-05-18T03:42:14.387Z,101513.44
2018-05-18T03:45:17.782Z,101505.80
2018-05-18T03:48:21.183Z,101508.05
2018-05-18T03:51:24.531Z,101506.91
2018-05-18T03:54:27.937Z,101508.77
2018-05-18T03:57:31.290Z,101504.97
2018-05-18T04:00:35.490Z,101516.10
2018-05-18T04:03:56.849Z,101513.41
2018-05-18T04:07:18.704Z,101508.88
2018-05-18T04:10:22.095Z,101515.50
2018-05-18T04:13:26.525Z,101519.41
2018-05-18T04:16:29.844Z,101513.58
2018-05-18T04:19:33.261Z,101517.55
2018-05-18T04:22:36.574Z,101511.20
2018-05-18T04:25:40.669Z,101513.72
2018-05-18T04:28:43.969Z,101518.19
2018-05-18T04:31:47.343Z,101505.45
2018-05-18T04:34:50.745Z,101508.14
2018-05-18T04:37:54.155Z,101511.33
2018-05-18T04:40:57.486Z,101513.05
2018-05-18T04:44:01.570Z,101512.25
2018-05-18T04:47:05.746Z,101512.60
2018-05-18T04:50:09.090Z,101511.53
2018-05-18T04:53:13.309Z,101513.53
2018-05-18T04:56:17.448Z,101506.20
2018-05-18T04:59:20.817Z,101510.67
2018-05-18T05:02:24.176Z,101510.17
2018-05-18T05:05:27.514Z,101506.59
2018-05-18T05:08:31.600Z,101511.67
2018-05-18T05:11:35.026Z,101517.77
2018-05-18T05:14:39.104Z,101507.73
2018-05-18T05:17:42.506Z,101510.83
2018-05-18T05:20:45.863Z,101518.37
2018-05-18T05:23:49.249Z,101525.81
2018-05-18T05:26:52.536Z,101519.21
2018-05-18T05:29:56.601Z,101521.16
2018-05-18T05:32:59.951Z,101517.52
2018-05-18T05:36:04.071Z,101513.38
2018-05-18T05:39:07.410Z,101511.92
2018-05-18T05:42:10.749Z,101510.30
2018-05-18T05:45:14.850Z,101515.74
2018-05-18T05:48:18.149Z,101517.48
2018-05-18T05:51:22.357Z,101515.93
2018-05-18T05:54:25.700Z,101518.42
2018-05-18T05:57:29.043Z,101526.16
2018-05-18T06:00:32.393Z,101528.20
2018-05-18T06:03:35.742Z,101534.89
2018-05-18T06:06:39.093Z,101531.14
2018-05-18T06:09:42.427Z,101531.39
2018-05-18T06:12:45.749Z,101535.94
2018-05-18T06:15:49.849Z,101536.88
2018-05-18T06:18:53.240Z,101538.67
2018-05-18T06:21:56.535Z,101542.16
2018-05-18T06:25:00.694Z,101547.48
2018-05-18T06:28:04.035Z,101547.36
2018-05-18T06:31:07.394Z,101547.20
2018-05-18T06:34:10.695Z,101542.23
2018-05-18T06:37:14.077Z,101544.79
2018-05-18T06:40:17.434Z,101549.90
2018-05-18T06:43:20.748Z,101544.28
2018-05-18T06:46:24.850Z,101545.41
2018-05-18T06:49:28.181Z,101550.81
2018-05-18T06:52:31.526Z,101554.42
2018-05-18T06:55:34.880Z,101556.44
2018-05-18T06:58:38.252Z,101558.93
2018-05-18T07:01:41.577Z,101564.48
2018-05-18T07:04:44.893Z,101564.59
2018-05-18T07:07:48.236Z,101561.55
2018-05-18T07:10:53.074Z,101561.14
2018-05-18T07:13:56.378Z,101559.91
2018-05-18T07:16:59.694Z,101561.38
2018-05-18T07:20:03.062Z,101562.84
2018-05-18T07:23:07.329Z,101553.39
2018-05-18T07:26:11.373Z,101559.48
2018-05-18T07:29:14.703Z,101551.84
2018-05-18T07:32:18.051Z,101562.46
2018-05-18T07:35:21.393Z,101557.73
2018-05-18T07:38:24.717Z,101560.08
2018-05-18T07:41:28.038Z,101557.51
2018-05-18T07:44:31.363Z,101553.80
2018-05-18T07:47:35.484Z,101552.94
2018-05-18T07:50:39.582Z,101555.69
2018-05-18T07:53:42.961Z,101548.42
2018-05-18T07:56:46.296Z,101554.63
2018-05-18T07:59:50.477Z,101566.11
2018-05-18T08:02:53.878Z,101566.53
2018-05-18T08:05:57.224Z,101557.41
2018-05-18T08:09:00.597Z,101558.47
2018-05-18T08:12:04.774Z,101557.16
2018-05-18T08:15:08.206Z,101549.37
2018-05-18T08:18:11.605Z,101554.38
2018-05-18T08:21:15.713Z,101552.20
2018-05-18T08:24:19.068Z,101561.04
2018-05-18T08:27:24.295Z,101556.15
2018-05-18T08:30:27.636Z,101561.00
2018-05-18T08:33:30.956Z,101558.66
2018-05-18T08:36:35.060Z,101571.37
2018-05-18T08:39:39.240Z,101574.09
2018-05-18T08:42:42.617Z,101573.27
2018-05-18T08:45:45.930Z,101579.85
2018-05-18T08:48:49.294Z,101580.35
2018-05-18T08:51:52.695Z,101570.76
2018-05-18T08:54:56.050Z,101579.09
2018-05-18T08:57:59.347Z,101578.64
2018-05-18T09:01:03.486Z,101581.75
2018-05-18T09:04:07.685Z,101580.39
2018-05-18T09:07:11.790Z,101588.73
2018-05-18T09:10:15.175Z,101595.27
2018-05-18T09:13:18.591Z,101594.89
2018-05-18T09:16:21.938Z,101596.28
2018-05-18T09:19:25.363Z,101599.80
2018-05-18T09:22:28.762Z,101600.67
2018-05-18T09:25:32.171Z,101597.17
2018-05-18T09:28:35.490Z,101590.59
2018-05-18T09:31:40.001Z,101596.73
2018-05-18T09:34:43.333Z,101596.73
2018-05-18T09:37:46.694Z,101595.40
2018-05-18T09:40:50.808Z,101599.36
2018-05-18T09:43:54.135Z,101600.66
2018-05-18T09:46:57.500Z,101596.69
2018-05-18T09:50:01.613Z,101600.66
2018-05-18T09:53:04.959Z,101607.27
2018-05-18T09:56:08.309Z,101594.55
2018-05-18T09:59:11.685Z,101604.64
2018-05-18T10:02:15.046Z,101604.17
2018-05-18T10:05:18.365Z,101602.84
2018-05-18T10:08:21.706Z,101602.02
2018-05-18T10:11:25.889Z,101598.92
2018-05-18T10:14:29.216Z,101601.56
2018-05-18T10:17:33.333Z,101610.34
2018-05-18T10:20:37.457Z,101602.42
2018-05-18T10:23:40.826Z,101608.11
2018-05-18T10:26:44.227Z,101611.59
2018-05-18T10:29:48.689Z,101610.75
2018-05-18T10:32:52.152Z,101616.01
2018-05-18T10:35:55.520Z,101612.50
2018-05-18T10:38:58.936Z,101619.91
2018-05-18T10:42:02.280Z,101625.62
2018-05-18T10:45:05.620Z,101618.63
2018-05-18T10:48:08.973Z,101623.05
2018-05-18T10:51:12.419Z,101621.67
2018-05-18T10:54:15.733Z,101623.39
2018-05-18T10:57:19.071Z,101630.48
2018-05-18T11:00:22.389Z,101633.50
2018-05-18T11:03:25.734Z,101628.64
2018-05-18T11:06:29.850Z,101628.67
2018-05-18T11:09:33.928Z,101628.66
2018-05-18T11:12:37.281Z,101630.31
2018-05-18T11:15:40.622Z,101625.02
2018-05-18T11:18:44.036Z,101624.61
2018-05-18T11:21:48.848Z,101623.68
2018-05-18T11:24:52.188Z,101627.16
2018-05-18T11:27:55.532Z,101627.16
2018-05-18T11:30:58.894Z,101631.98
2018-05-18T11:34:02.219Z,101626.86
2018-05-18T11:37:05.552Z,101625.99
2018-05-18T11:40:09.640Z,101625.92
2018-05-18T11:43:12.942Z,101625.05
2018-05-18T11:46:17.091Z,101625.86
2018-05-18T11:49:21.169Z,101625.88
2018-05-18T11:52:24.516Z,101627.59
2018-05-18T11:55:27.873Z,101621.81
2018-05-18T11:58:31.221Z,101623.56
2018-05-18T12:01:34.580Z,101627.55
2018-05-18T12:04:38.675Z,101633.28
2018-05-18T12:07:41.998Z,101629.92
2018-05-18T12:10:45.482Z,101641.82
2018-05-18T12:13:48.865Z,101640.13
2018-05-18T12:16:52.212Z,101629.95
2018-05-18T12:19:55.545Z,101629.52
2018-05-18T12:22:59.525Z,101625.05
2018-05-18T12:26:02.917Z,101627.97
2018-05-18T12:29:06.234Z,101624.02
2018-05-18T12:32:09.661Z,101625.78
2018-05-18T12:35:13.060Z,101631.97
2018-05-18T12:38:16.487Z,101633.70
2018-05-18T12:41:19.838Z,101631.80
2018-05-18T12:44:23.262Z,101635.84
2018-05-18T12:47:26.622Z,101636.13
2018-05-18T12:50:30.006Z,101638.69
2018-05-18T12:53:33.443Z,101630.23
2018-05-18T12:56:36.807Z,101635.42
2018-05-18T12:59:40.151Z,101634.00
2018-05-18T13:02:43.495Z,101636.51
2018-05-18T13:05:46.816Z,101642.61
2018-05-18T13:08:50.174Z,101639.66
2018-05-18T13:11:53.630Z,101639.32
2018-05-18T13:14:57.759Z,101644.44
2018-05-18T13:18:01.892Z,101635.28
2018-05-18T13:21:05.353Z,101641.64
2018-05-18T13:24:08.703Z,101641.53
2018-05-18T13:27:12.160Z,101640.05
2018-05-18T13:30:15.550Z,101643.03
2018-05-18T13:33:18.888Z,101641.58
2018-05-18T13:36:22.348Z,101645.05
2018-05-18T13:39:25.679Z,101640.91
2018-05-18T13:42:29.043Z,101646.22
2018-05-18T13:45:32.457Z,101647.70
2018-05-18T13:48:36.566Z,101641.61
2018-05-18T13:51:40.746Z,101641.97
2018-05-18T13:54:44.971Z,101635.34
2018-05-18T13:57:48.297Z,101642.38
2018-05-18T14:00:51.663Z,101636.69
2018-05-18T14:03:54.989Z,101637.20
2018-05-18T14:06:59.110Z,101638.58
2018-05-18T14:10:03.209Z,101641.16
2018-05-18T14:13:07.386Z,101641.06
2018-05-18T14:16:10.706Z,101644.91
2018-05-18T14:19:14.115Z,101647.22
2018-05-18T14:22:17.514Z,101643.76
2018-05-18T14:25:20.911Z,101643.31
2018-05-18T14:28:24.310Z,101652.03
2018-05-18T14:31:27.667Z,101648.92
2018-05-18T14:34:31.109Z,101651.08
2018-05-18T14:37:34.530Z,101653.67
2018-05-18T14:40:37.826Z,101651.89
2018-05-18T14:43:41.218Z,101647.27
2018-05-18T14:46:45.338Z,101649.41
2018-05-18T14:49:48.703Z,101645.86
2018-05-18T14:52:52.094Z,101649.44
2018-05-18T14:55:55.389Z,101640.67
2018-05-18T14:58:59.519Z,101645.80
2018-05-18T15:02:03.715Z,101645.98
2018-05-18T15:05:07.102Z,101653.17
2018-05-18T15:08:10.462Z,101650.73
2018-05-18T15:11:13.831Z,101660.45
2018-05-18T15:14:17.179Z,101658.97
2018-05-18T15:17:20.592Z,101662.58
2018-05-18T15:20:23.912Z,101662.23
2018-05-18T15:23:27.357Z,101661.73
2018-05-18T15:26:30.719Z,101658.08
2018-05-18T15:29:34.921Z,101665.02
2018-05-18T15:32:38.265Z,101657.73
2018-05-18T15:35:41.687Z,101664.11
2018-05-18T15:38:45.023Z,101664.14
2018-05-18T15:41:49.153Z,101665.29
2018-05-18T15:44:52.485Z,101664.77
2018-05-18T15:47:55.903Z,101668.28
2018-05-18T15:50:59.253Z,101670.20
2018-05-18T15:54:02.589Z,101665.74
2018-05-18T15:57:05.942Z,101664.37
2018-05-18T16:00:09.273Z,101657.58
2018-05-18T16:03:12.695Z,101657.89
2018-05-18T16:06:16.077Z,101665.27
2018-05-18T16:09:19.483Z,101657.70
2018-05-18T16:12:22.917Z,101663.38
2018-05-18T16:15:27.093Z,101657.33
2018-05-18T16:18:30.492Z,101661.28
2018-05-18T16:21:33.896Z,101657.80
2018-05-18T16:24:37.293Z,101663.81
2018-05-18T16:27:40.671Z,101662.20
2018-05-18T16:30:44.001Z,101668.45
2018-05-18T16:33:47.339Z,101665.50
2018-05-18T16:36:50.690Z,101671.65
2018-05-18T16:39:54.788Z,101675.46
2018-05-18T16:42:58.150Z,101676.50
2018-05-18T16:46:01.467Z,101683.15
2018-05-18T16:49:04.837Z,101681.45
2018-05-18T16:52:08.286Z,101691.31
2018-05-18T16:55:11.678Z,101691.53
2018-05-18T16:58:14.996Z,101699.22
2018-05-18T17:01:18.373Z,101695.14
2018-05-18T17:04:21.725Z,101703.22
2018-05-18T17:07:25.103Z,101704.84
2018-05-18T17:10:28.434Z,101699.53
2018-05-18T17:13:31.857Z,101703.25
2018-05-18T17:16:35.189Z,101714.34
2018-05-18T17:19:39.308Z,101716.42
2018-05-18T17:22:42.669Z,101715.98
2018-05-18T17:25:46.139Z,101720.17
2018-05-18T17:28:49.441Z,101721.12
2018-05-18T17:31:52.869Z,101734.55
2018-05-18T17:34:56.255Z,101745.44
2018-05-18T17:37:59.615Z,101750.13
2018-05-18T17:41:03.075Z,101749.50
2018-05-18T17:44:07.199Z,101748.41
2018-05-18T17:47:11.328Z,101757.83
2018-05-18T17:50:14.760Z,101758.69
2018-05-18T17:53:18.196Z,101754.28
2018-05-18T17:56:22.292Z,101757.67
2018-05-18T17:59:25.721Z,101756.13
2018-05-18T18:02:29.062Z,101757.76
2018-05-18T18:05:32.375Z,101761.91
2018-05-18T18:08:35.714Z,101765.66
2018-05-18T18:11:39.796Z,101758.05
2018-05-18T18:14:43.139Z,101761.48
2018-05-18T18:17:46.597Z,101769.28
2018-05-18T18:20:50.682Z,101769.55
2018-05-18T18:23:54.127Z,101774.06
2018-05-18T18:26:58.225Z,101779.69
2018-05-18T18:30:01.638Z,101780.47
2018-05-18T18:33:05.932Z,101778.91
2018-05-18T18:36:09.325Z,101783.69
2018-05-18T18:39:12.641Z,101787.01
2018-05-18T18:42:16.751Z,101785.05
2018-05-18T18:45:20.081Z,101787.11
2018-05-18T18:48:24.285Z,101789.63
2018-05-18T18:51:28.420Z,101790.23
2018-05-18T18:54:31.749Z,101792.52
2018-05-18T18:57:35.115Z,101796.97
2018-05-18T19:00:38.470Z,101796.91
2018-05-18T19:03:41.859Z,101807.73
2018-05-18T19:06:45.191Z,101810.31
2018-05-18T19:09:48.540Z,101813.61
2018-05-18T19:12:51.892Z,101805.98
2018-05-18T19:15:55.234Z,101809.78
2018-05-18T19:18:58.588Z,101818.42
2018-05-18T19:22:01.941Z,101826.42
2018-05-18T19:25:05.333Z,101824.80
2018-05-18T19:28:08.747Z,101825.67
2018-05-18T19:31:13.012Z,101831.55
2018-05-18T19:34:16.441Z,101832.42
2018-05-18T19:37:19.842Z,101833.22
2018-05-18T19:40:23.263Z,101836.15
2018-05-18T19:43:26.644Z,101831.17
2018-05-18T19:46:30.002Z,101838.80
2018-05-18T19:49:33.378Z,101839.65
2018-05-18T19:52:36.721Z,101846.34
2018-05-18T19:55:40.078Z,101842.41
2018-05-18T19:58:43.469Z,101848.56
2018-05-18T20:01:47.574Z,101844.67
2018-05-18T20:04:51.677Z,101846.89
2018-05-18T20:07:54.982Z,101848.64
2018-05-18T20:10:58.329Z,101843.36
2018-05-18T20:14:01.684Z,101844.01
2018-05-18T20:17:05.798Z,101849.89
2018-05-18T20:20:09.918Z,101844.02
2018-05-18T20:23:14.019Z,101846.06
2018-05-18T20:26:17.362Z,101844.63
2018-05-18T20:29:20.831Z,101845.28
2018-05-18T20:32:25.745Z,101847.81
2018-05-18T20:35:29.205Z,101842.31
2018-05-18T20:38:32.593Z,101839.97
2018-05-18T20:41:36.011Z,101841.35
2018-05-18T20:44:39.328Z,101844.38
2018-05-18T20:47:42.680Z,101846.87
2018-05-18T20:50:46.941Z,101844.60
2018-05-18T20:53:50.438Z,101845.72
2018-05-18T20:56:53.762Z,101858.46
2018-05-18T20:59:57.872Z,101861.12
2018-05-18T21:03:02.001Z,101860.70
2018-05-18T21:06:06.259Z,101861.25
2018-05-18T21:09:09.637Z,101863.66
2018-05-18T21:12:13.002Z,101867.87
2018-05-18T21:15:16.354Z,101874.16
2018-05-18T21:18:19.791Z,101876.61
2018-05-18T21:21:23.182Z,101880.75
2018-05-18T21:24:26.581Z,101871.17
2018-05-18T21:27:29.985Z,101879.88
2018-05-18T21:30:33.380Z,101869.95
2018-05-18T21:33:36.687Z,101879.42
2018-05-18T21:36:40.890Z,101875.39
2018-05-18T21:39:44.883Z,101873.13
2018-05-18T21:42:48.259Z,101876.84
2018-05-18T21:45:51.695Z,101877.91
2018-05-18T21:48:55.038Z,101875.39
2018-05-18T21:51:58.403Z,101874.75
2018-05-18T21:55:02.510Z,101878.14
2018-05-18T21:58:06.626Z,101885.58
2018-05-18T22:01:10.135Z,101882.34
2018-05-18T22:04:14.291Z,101878.44
2018-05-18T22:07:17.641Z,101883.34
2018-05-18T22:10:20.955Z,101881.13
2018-05-18T22:13:24.294Z,101882.79
2018-05-18T22:16:27.672Z,101881.55
2018-05-18T22:19:31.032Z,101875.61
2018-05-18T22:22:35.243Z,101877.80
2018-05-18T22:25:38.596Z,101878.94
2018-05-18T22:28:42.048Z,101870.96
2018-05-18T22:31:45.447Z,101876.53
2018-05-18T22:34:50.101Z,101883.12
2018-05-18T22:37:53.441Z,101884.37
2018-05-18T22:40:56.809Z,101888.80
2018-05-18T22:44:00.165Z,101885.32
2018-05-18T22:47:04.250Z,101882.20
2018-05-18T22:50:07.662Z,101885.09
2018-05-18T22:53:11.852Z,101891.01
2018-05-18T22:56:15.204Z,101890.16
2018-05-18T22:59:19.334Z,101894.58
2018-05-18T23:02:22.688Z,101897.67
2018-05-18T23:05:26.083Z,101895.42
2018-05-18T23:08:29.421Z,101898.77
2018-05-18T23:11:32.761Z,101893.05
2018-05-18T23:14:36.116Z,101894.79
2018-05-18T23:17:39.443Z,101895.42
2018-05-18T23:20:42.829Z,101904.55
2018-05-18T23:23:46.239Z,101905.25
2018-05-18T23:26:49.643Z,101901.03
2018-05-18T23:29:53.053Z,101895.85
2018-05-18T23:32:56.395Z,101906.28
2018-05-18T23:35:59.693Z,101896.11
2018-05-18T23:39:03.067Z,101902.34
2018-05-18T23:42:07.212Z,101905.40
2018-05-18T23:45:10.650Z,101894.25
2018-05-18T23:48:14.805Z,101890.00
2018-05-18T23:51:18.142Z,101899.07
2018-05-18T23:54:21.504Z,101896.38
2018-05-18T23:57:24.862Z,101906.43
